Time;durP1;ratioP1;P1;durP2;ratioP2;P2;SDS_P1;SDS_P2;PMS_P1;PMS_P2;Temp;Humidity;BMP_temperature;BMP_pressure;BME280_temperature;BME280_humidity;BME280_pressure;Samples;Min_cycle;Max_cycle;Signal;HPM_P1;HPM_P2
2021/12/01 00:01:25;;;;;;;;;;;3.10;99.90;;;;;;8308623;28;19939;-66
2021/12/01 00:05:27;;;;;;;;;;;3.10;99.90;;;;;;8326798;28;20003;-66
2021/12/01 00:09:28;;;;;;;;;;;3.20;99.90;;;;;;8325130;28;19909;-66
2021/12/01 00:13:32;;;;;;;;;;;3.20;99.90;;;;;;8326549;28;20387;-66
2021/12/01 00:17:32;;;;;;;;;;;3.20;99.90;;;;;;8325616;28;19909;-65
2021/12/01 00:21:33;;;;;;;;;;;3.30;99.90;;;;;;8325925;28;19948;-66
2021/12/01 00:25:39;;;;;;;;;;;3.30;99.90;;;;;;8308477;28;19913;-66
2021/12/01 00:29:39;;;;;;;;;;;3.30;99.90;;;;;;8307602;28;19920;-66
2021/12/01 00:33:40;;;;;;;;;;;3.30;99.90;;;;;;8326337;28;19956;-66
2021/12/01 00:37:41;;;;;;;;;;;3.30;99.90;;;;;;8329989;28;19944;-67
2021/12/01 00:41:41;;;;;;;;;;;3.30;99.90;;;;;;8314269;28;19920;-66
2021/12/01 00:45:50;;;;;;;;;;;3.30;99.90;;;;;;8330966;28;20388;-66
2021/12/01 00:49:50;;;;;;;;;;;3.30;99.90;;;;;;8331306;28;19917;-65
2021/12/01 00:53:51;;;;;;;;;;;3.20;99.90;;;;;;8334942;28;20398;-67
2021/12/01 00:57:52;;;;;;;;;;;3.20;99.90;;;;;;8343462;28;19916;-66
2021/12/01 01:01:53;;;;;;;;;;;3.10;99.90;;;;;;8364052;28;19909;-66
2021/12/01 01:05:54;;;;;;;;;;;3.10;99.90;;;;;;8364773;28;19916;-66
2021/12/01 01:09:54;;;;;;;;;;;3.10;99.90;;;;;;8363121;28;19956;-67
2021/12/01 01:18:14;;;;;;;;;;;3.10;99.90;;;;;;8364219;28;19962;-66
2021/12/01 01:22:14;;;;;;;;;;;3.20;99.90;;;;;;8362926;28;19912;-67
2021/12/01 01:26:16;;;;;;;;;;;3.30;99.90;;;;;;8360713;28;20275;-66
2021/12/01 01:30:17;;;;;;;;;;;3.30;99.90;;;;;;8363180;28;20271;-66
2021/12/01 01:34:17;;;;;;;;;;;3.40;99.90;;;;;;8363647;28;20007;-66
2021/12/01 01:38:18;;;;;;;;;;;3.40;99.90;;;;;;8363492;28;19999;-66
2021/12/01 01:42:19;;;;;;;;;;;3.50;99.90;;;;;;8363287;28;20603;-67
2021/12/01 01:46:20;;;;;;;;;;;3.40;99.90;;;;;;8334990;28;20486;-67
2021/12/01 01:50:34;;;;;;;;;;;3.40;99.90;;;;;;8328441;28;19924;-66
2021/12/01 01:54:35;;;;;;;;;;;3.50;99.90;;;;;;8340925;28;19915;-66
2021/12/01 01:58:36;;;;;;;;;;;3.40;99.90;;;;;;8362677;28;19908;-65
2021/12/01 02:02:36;;;;;;;;;;;3.50;99.90;;;;;;8361670;28;20019;-66
2021/12/01 02:06:37;;;;;;;;;;;3.50;99.90;;;;;;8362305;28;20620;-67
2021/12/01 02:10:37;;;;;;;;;;;3.50;99.90;;;;;;8361790;28;19912;-66
2021/12/01 02:14:38;;;;;;;;;;;3.60;99.90;;;;;;8362090;28;19973;-66
2021/12/01 02:18:39;;;;;;;;;;;3.70;99.90;;;;;;8362221;28;20314;-66
2021/12/01 02:22:39;;;;;;;;;;;3.70;99.90;;;;;;8360893;28;19916;-65
2021/12/01 02:26:42;;;;;;;;;;;3.70;99.90;;;;;;8339258;28;19913;-66
2021/12/01 02:30:42;;;;;;;;;;;3.70;99.90;;;;;;8361394;28;19915;-66
2021/12/01 02:34:44;;;;;;;;;;;3.70;99.90;;;;;;8342543;28;19912;-66
2021/12/01 02:38:45;;;;;;;;;;;3.70;99.90;;;;;;8343818;28;19909;-65
2021/12/01 02:42:46;;;;;;;;;;;3.70;99.90;;;;;;8342795;28;19913;-65
2021/12/01 02:46:46;;;;;;;;;;;3.70;99.90;;;;;;8361093;28;20326;-65
2021/12/01 02:50:48;;;;;;;;;;;3.70;99.90;;;;;;8360614;28;20447;-66
2021/12/01 02:54:48;;;;;;;;;;;3.70;99.90;;;;;;8357896;28;20004;-66
2021/12/01 02:58:49;;;;;;;;;;;3.70;99.90;;;;;;8358588;28;19909;-66
2021/12/01 03:02:51;;;;;;;;;;;3.70;99.90;;;;;;8360152;28;19980;-65
2021/12/01 03:06:52;;;;;;;;;;;3.70;99.90;;;;;;8343166;28;19912;-66
2021/12/01 03:10:53;;;;;;;;;;;3.70;99.90;;;;;;8341977;28;19963;-65
2021/12/01 03:14:54;;;;;;;;;;;3.70;99.90;;;;;;8360160;28;20003;-66
2021/12/01 03:18:54;;;;;;;;;;;3.80;99.90;;;;;;8360411;28;19916;-65
2021/12/01 03:22:55;;;;;;;;;;;3.80;99.90;;;;;;8358500;28;19909;-66
2021/12/01 03:26:55;;;;;;;;;;;3.80;99.90;;;;;;8337831;28;19917;-64
2021/12/01 03:30:56;;;;;;;;;;;3.90;99.90;;;;;;8359484;28;20548;-66
2021/12/01 03:34:57;;;;;;;;;;;3.90;99.90;;;;;;8358976;28;19917;-66
2021/12/01 03:38:58;;;;;;;;;;;3.90;99.90;;;;;;8359491;28;19916;-65
2021/12/01 03:42:58;;;;;;;;;;;3.90;99.90;;;;;;8358532;28;19908;-66
2021/12/01 03:46:59;;;;;;;;;;;4.00;99.90;;;;;;8359470;28;20379;-65
2021/12/01 03:50:59;;;;;;;;;;;4.00;99.90;;;;;;8359204;28;20376;-66
2021/12/01 03:55:00;;;;;;;;;;;4.00;99.90;;;;;;8356059;28;19908;-65
2021/12/01 03:59:01;;;;;;;;;;;4.10;99.90;;;;;;8358999;28;19940;-66
2021/12/01 04:03:02;;;;;;;;;;;4.00;99.90;;;;;;8359180;28;19952;-64
2021/12/01 04:07:03;;;;;;;;;;;4.10;99.90;;;;;;8358481;28;19927;-66
2021/12/01 04:11:04;;;;;;;;;;;4.20;99.90;;;;;;8362069;28;19909;-65
2021/12/01 04:15:05;;;;;;;;;;;4.10;99.90;;;;;;8365951;28;20395;-66
2021/12/01 04:19:06;;;;;;;;;;;4.10;99.90;;;;;;8365050;28;19916;-66
2021/12/01 04:23:07;;;;;;;;;;;4.10;99.90;;;;;;8362932;28;19916;-66
2021/12/01 04:27:09;;;;;;;;;;;4.10;99.90;;;;;;8363907;28;19916;-66
2021/12/01 04:31:09;;;;;;;;;;;4.10;99.90;;;;;;8365014;28;20425;-66
2021/12/01 04:35:10;;;;;;;;;;;4.10;99.90;;;;;;8363571;28;19909;-66
2021/12/01 04:39:11;;;;;;;;;;;4.10;99.90;;;;;;8331477;28;19909;-66
2021/12/01 04:43:12;;;;;;;;;;;4.20;99.90;;;;;;8331511;28;19909;-66
2021/12/01 04:47:14;;;;;;;;;;;4.20;99.90;;;;;;8312931;28;20391;-66
2021/12/01 04:51:17;;;;;;;;;;;4.20;99.90;;;;;;8337967;23;19935;-63
2021/12/01 04:55:17;;;;;;;;;;;4.20;99.90;;;;;;8303797;28;20294;-63
2021/12/01 04:59:18;;;;;;;;;;;4.30;99.90;;;;;;8313748;28;19913;-63
2021/12/01 05:03:19;;;;;;;;;;;4.40;99.90;;;;;;8322200;28;19917;-64
2021/12/01 05:07:19;;;;;;;;;;;4.30;99.90;;;;;;8330045;28;19924;-64
2021/12/01 05:11:20;;;;;;;;;;;4.30;99.90;;;;;;8314246;28;19913;-63
2021/12/01 05:15:20;;;;;;;;;;;4.40;99.90;;;;;;8287492;28;19975;-64
2021/12/01 05:19:21;;;;;;;;;;;4.40;99.90;;;;;;8310088;28;19920;-63
2021/12/01 05:23:21;;;;;;;;;;;4.40;99.90;;;;;;8300047;28;19964;-64
2021/12/01 05:27:22;;;;;;;;;;;4.40;99.90;;;;;;8319431;28;19917;-63
2021/12/01 05:31:23;;;;;;;;;;;4.40;99.90;;;;;;8328039;28;19921;-63
2021/12/01 05:35:23;;;;;;;;;;;4.30;99.90;;;;;;8446566;22;19951;-63
2021/12/01 05:39:24;;;;;;;;;;;4.30;99.90;;;;;;8360986;28;19913;-63
2021/12/01 05:43:24;;;;;;;;;;;4.20;99.90;;;;;;8361713;28;20015;-62
2021/12/01 05:47:24;;;;;;;;;;;4.20;99.90;;;;;;8344203;28;19912;-65
2021/12/01 05:51:25;;;;;;;;;;;4.20;99.90;;;;;;8360387;28;19943;-65
2021/12/01 05:55:25;;;;;;;;;;;4.30;99.90;;;;;;8326804;28;19913;-65
2021/12/01 05:59:26;;;;;;;;;;;4.30;99.90;;;;;;8315283;28;19980;-65
2021/12/01 06:03:27;;;;;;;;;;;4.30;99.90;;;;;;8311737;28;20311;-65
2021/12/01 06:07:27;;;;;;;;;;;4.30;99.90;;;;;;8306006;28;20380;-73
2021/12/01 06:11:29;;;;;;;;;;;4.30;99.90;;;;;;8305927;28;20402;-73
2021/12/01 06:15:31;;;;;;;;;;;4.40;99.90;;;;;;8312088;28;19914;-73
2021/12/01 06:19:32;;;;;;;;;;;4.60;99.90;;;;;;8306623;28;20422;-72
2021/12/01 06:23:32;;;;;;;;;;;4.60;99.90;;;;;;8302586;28;20189;-72
2021/12/01 06:27:33;;;;;;;;;;;4.70;99.90;;;;;;8342937;28;19963;-73
2021/12/01 06:31:34;;;;;;;;;;;4.60;99.90;;;;;;8332434;28;20315;-73
2021/12/01 06:35:34;;;;;;;;;;;4.60;99.90;;;;;;8311023;28;19925;-63
2021/12/01 06:39:35;;;;;;;;;;;4.60;99.90;;;;;;8320248;28;19944;-64
2021/12/01 06:43:35;;;;;;;;;;;4.60;99.90;;;;;;8298892;28;19913;-64
2021/12/01 06:47:36;;;;;;;;;;;4.50;99.90;;;;;;8311623;28;20291;-64
2021/12/01 06:51:37;;;;;;;;;;;4.40;99.90;;;;;;8316148;28;20015;-64
2021/12/01 06:55:37;;;;;;;;;;;4.30;99.90;;;;;;8309174;28;19917;-64
2021/12/01 06:59:38;;;;;;;;;;;4.30;99.90;;;;;;8318954;28;19917;-65
2021/12/01 07:03:38;;;;;;;;;;;4.30;99.90;;;;;;8320550;28;20521;-65
2021/12/01 07:07:39;;;;;;;;;;;4.40;99.90;;;;;;8322096;28;20449;-64
2021/12/01 07:11:39;;;;;;;;;;;4.40;99.90;;;;;;8318690;28;20299;-65
2021/12/01 07:15:40;;;;;;;;;;;4.30;99.90;;;;;;8317085;28;19917;-64
2021/12/01 07:19:40;;;;;;;;;;;4.50;99.90;;;;;;8317286;28;20192;-64
2021/12/01 07:23:41;;;;;;;;;;;4.50;99.90;;;;;;8320656;28;19917;-66
2021/12/01 07:27:41;;;;;;;;;;;4.50;99.90;;;;;;8324089;28;20429;-66
2021/12/01 07:31:42;;;;;;;;;;;4.50;99.90;;;;;;8304887;28;19917;-66
2021/12/01 07:35:42;;;;;;;;;;;4.50;99.90;;;;;;8315983;28;19947;-65
2021/12/01 07:39:43;;;;;;;;;;;4.60;99.90;;;;;;8314389;28;20420;-64
2021/12/01 07:43:44;;;;;;;;;;;4.60;99.90;;;;;;8315003;28;19917;-65
2021/12/01 07:47:45;;;;;;;;;;;4.60;99.90;;;;;;8309985;28;19972;-65
2021/12/01 07:51:45;;;;;;;;;;;4.70;99.90;;;;;;8323532;28;19925;-64
2021/12/01 07:55:45;;;;;;;;;;;4.80;99.90;;;;;;8299170;28;20284;-63
2021/12/01 07:59:46;;;;;;;;;;;4.70;99.90;;;;;;8314179;28;19913;-64
2021/12/01 08:03:46;;;;;;;;;;;4.70;99.90;;;;;;8323197;28;19909;-64
2021/12/01 08:07:49;;;;;;;;;;;4.70;99.90;;;;;;8308247;28;19913;-63
2021/12/01 08:11:49;;;;;;;;;;;4.80;99.90;;;;;;8317810;28;20390;-64
2021/12/01 08:15:50;;;;;;;;;;;4.90;99.90;;;;;;8304953;28;19925;-64
2021/12/01 08:19:50;;;;;;;;;;;5.00;99.90;;;;;;8311077;28;19921;-63
2021/12/01 08:23:52;;;;;;;;;;;5.00;99.90;;;;;;8307517;28;19913;-63
2021/12/01 08:27:52;;;;;;;;;;;5.00;99.90;;;;;;8316015;28;19917;-64
2021/12/01 08:31:53;;;;;;;;;;;5.00;99.90;;;;;;8318622;28;19920;-63
2021/12/01 08:35:53;;;;;;;;;;;5.10;99.90;;;;;;8334462;28;19917;-62
2021/12/01 08:39:54;;;;;;;;;;;5.10;99.90;;;;;;8318490;28;19920;-63
2021/12/01 08:43:54;;;;;;;;;;;5.20;99.90;;;;;;8321293;28;20405;-64
2021/12/01 08:47:55;;;;;;;;;;;5.20;99.90;;;;;;8322348;28;19936;-64
2021/12/01 08:51:55;;;;;;;;;;;5.40;99.90;;;;;;8320018;28;19913;-64
2021/12/01 08:55:57;;;;;;;;;;;5.60;99.90;;;;;;8320552;28;20287;-61
2021/12/01 08:59:58;;;;;;;;;;;5.40;99.90;;;;;;8327533;28;20287;-61
2021/12/01 09:03:58;;;;;;;;;;;5.10;99.90;;;;;;8323272;28;19920;-62
2021/12/01 09:07:58;;;;;;;;;;;5.20;99.90;;;;;;8329487;28;19920;-63
2021/12/01 09:11:59;;;;;;;;;;;5.40;99.90;;;;;;8312786;28;19960;-62
2021/12/01 09:16:00;;;;;;;;;;;5.40;99.90;;;;;;8303605;28;19952;-63
2021/12/01 09:20:03;;;;;;;;;;;5.50;99.90;;;;;;8315898;28;20372;-63
2021/12/01 09:24:04;;;;;;;;;;;5.60;99.90;;;;;;8308347;28;19916;-62
2021/12/01 09:28:04;;;;;;;;;;;5.70;99.90;;;;;;8326525;28;19917;-62
2021/12/01 09:32:05;;;;;;;;;;;5.80;99.90;;;;;;8323161;28;20012;-61
2021/12/01 09:36:05;;;;;;;;;;;5.90;99.90;;;;;;8309748;28;19921;-62
2021/12/01 09:40:12;;;;;;;;;;;6.00;99.90;;;;;;8309505;28;19921;-62
2021/12/01 09:44:13;;;;;;;;;;;6.10;99.90;;;;;;8300556;28;19920;-63
2021/12/01 09:48:14;;;;;;;;;;;6.20;99.90;;;;;;8320929;28;20415;-62
2021/12/01 09:52:14;;;;;;;;;;;6.30;99.90;;;;;;8313484;28;19920;-63
2021/12/01 09:56:15;;;;;;;;;;;6.50;99.90;;;;;;8321464;28;19977;-63
2021/12/01 10:00:16;;;;;;;;;;;6.60;99.90;;;;;;8321761;28;20268;-62
2021/12/01 10:04:16;;;;;;;;;;;6.60;99.90;;;;;;8321772;28;20012;-64
2021/12/01 10:08:18;;;;;;;;;;;6.90;99.90;;;;;;8322013;28;19925;-64
2021/12/01 10:12:19;;;;;;;;;;;7.10;99.90;;;;;;8307672;28;19975;-64
2021/12/01 10:16:19;;;;;;;;;;;7.30;99.90;;;;;;8319023;28;19924;-64
2021/12/01 10:20:20;;;;;;;;;;;8.30;99.90;;;;;;8327050;28;19917;-63
2021/12/01 10:24:32;;;;;;;;;;;9.30;99.90;;;;;;8315802;28;19975;-64
2021/12/01 10:28:34;;;;;;;;;;;8.50;99.90;;;;;;8327186;28;19916;-63
2021/12/01 10:32:35;;;;;;;;;;;8.30;99.90;;;;;;8311086;28;19913;-63
2021/12/01 10:36:36;;;;;;;;;;;8.20;99.90;;;;;;8321782;28;19994;-64
2021/12/01 10:40:37;;;;;;;;;;;8.20;99.90;;;;;;8338949;28;20346;-63
2021/12/01 10:44:53;;;;;;;;;;;8.20;99.90;;;;;;8309847;28;20700;-64
2021/12/01 10:49:01;;;;;;;;;;;8.90;99.90;;;;;;8326784;28;19909;-63
2021/12/01 10:53:02;;;;;;;;;;;8.90;99.90;;;;;;8338222;28;19917;-64
2021/12/01 10:57:19;;;;;;;;;;;9.10;99.90;;;;;;8306963;28;19999;-64
2021/12/01 11:01:21;;;;;;;;;;;8.40;99.90;;;;;;8306137;28;19909;-63
2021/12/01 11:05:29;;;;;;;;;;;8.00;99.90;;;;;;8326387;28;19921;-63
2021/12/01 11:09:29;;;;;;;;;;;8.30;99.90;;;;;;8308416;28;19909;-64
2021/12/01 11:13:30;;;;;;;;;;;9.30;99.90;;;;;;8326456;28;20165;-63
2021/12/01 11:17:40;;;;;;;;;;;9.30;99.90;;;;;;8308859;28;19916;-63
2021/12/01 11:21:41;;;;;;;;;;;11.30;99.90;;;;;;8325869;28;20096;-63
2021/12/01 11:25:42;;;;;;;;;;;12.90;99.90;;;;;;8321363;28;19923;-63
2021/12/01 11:29:43;;;;;;;;;;;13.40;99.90;;;;;;8318790;28;20538;-63
2021/12/01 11:33:44;;;;;;;;;;;14.30;99.90;;;;;;8315962;28;20015;-63
2021/12/01 11:37:45;;;;;;;;;;;12.90;99.90;;;;;;8323493;28;20393;-64
2021/12/01 11:41:46;;;;;;;;;;;13.90;99.90;;;;;;8317108;28;19916;-64
2021/12/01 11:45:47;;;;;;;;;;;13.20;99.90;;;;;;8312519;28;20121;-64
2021/12/01 11:49:49;;;;;;;;;;;11.20;99.90;;;;;;8318447;28;20406;-63
2021/12/01 11:53:52;;;;;;;;;;;10.40;99.90;;;;;;8339236;22;19950;-66
2021/12/01 11:57:52;;;;;;;;;;;10.10;99.90;;;;;;8303492;28;19921;-67
2021/12/01 12:01:56;;;;;;;;;;;9.80;99.90;;;;;;8323239;28;19913;-66
2021/12/01 12:06:15;;;;;;;;;;;9.50;99.90;;;;;;8299040;28;19980;-66
2021/12/01 12:10:19;;;;;;;;;;;9.30;99.90;;;;;;8306994;28;19913;-66
2021/12/01 12:14:28;;;;;;;;;;;8.90;99.90;;;;;;8297082;28;19940;-66
2021/12/01 12:18:35;;;;;;;;;;;8.90;99.90;;;;;;8299431;28;19913;-67
2021/12/01 12:22:43;;;;;;;;;;;8.80;99.90;;;;;;8294976;28;19913;-66
2021/12/01 12:26:45;;;;;;;;;;;8.70;99.90;;;;;;8305312;28;20000;-66
2021/12/01 12:30:45;;;;;;;;;;;8.70;99.90;;;;;;8319238;28;19976;-67
2021/12/01 12:34:53;;;;;;;;;;;8.50;99.90;;;;;;8308914;28;20679;-66
2021/12/01 12:39:05;;;;;;;;;;;8.30;99.90;;;;;;8300807;28;19924;-67
2021/12/01 12:43:05;;;;;;;;;;;8.30;99.90;;;;;;8300895;28;20307;-66
2021/12/01 12:47:06;;;;;;;;;;;8.30;99.90;;;;;;8313004;28;19968;-67
2021/12/01 12:51:13;;;;;;;;;;;8.20;99.90;;;;;;8300086;28;19921;-66
2021/12/01 12:55:19;;;;;;;;;;;8.10;99.90;;;;;;8317672;28;19943;-67
2021/12/01 12:59:19;;;;;;;;;;;8.20;99.90;;;;;;8267363;28;19921;-66
2021/12/01 13:03:21;;;;;;;;;;;8.30;99.90;;;;;;8290179;28;20383;-66
2021/12/01 13:07:56;;;;;;;;;;;8.40;99.90;;;;;;8332718;28;19920;-66
2021/12/01 13:11:57;;;;;;;;;;;8.30;99.90;;;;;;8283650;28;20015;-66
2021/12/01 13:15:57;;;;;;;;;;;8.30;99.90;;;;;;8300327;28;19943;-66
2021/12/01 13:20:00;;;;;;;;;;;8.40;99.90;;;;;;8305779;28;19913;-66
2021/12/01 13:24:00;;;;;;;;;;;8.20;99.90;;;;;;8304444;28;19996;-66
2021/12/01 13:28:03;;;;;;;;;;;8.20;99.90;;;;;;8315201;28;19914;-66
2021/12/01 13:32:04;;;;;;;;;;;8.20;99.90;;;;;;8284878;28;19917;-65
2021/12/01 13:36:15;;;;;;;;;;;8.30;99.90;;;;;;8291138;28;19917;-65
2021/12/01 13:40:15;;;;;;;;;;;8.40;99.90;;;;;;8325951;28;19909;-65
2021/12/01 13:44:18;;;;;;;;;;;8.50;99.90;;;;;;8308318;28;19913;-67
2021/12/01 13:48:18;;;;;;;;;;;8.60;99.90;;;;;;8309055;28;19945;-67
2021/12/01 13:52:31;;;;;;;;;;;8.80;99.90;;;;;;8298013;28;20308;-66
2021/12/01 13:56:32;;;;;;;;;;;8.80;99.90;;;;;;8292173;28;20019;-66
2021/12/01 14:00:45;;;;;;;;;;;8.90;99.90;;;;;;8314500;28;19913;-65
2021/12/01 14:04:48;;;;;;;;;;;8.80;99.90;;;;;;8280180;28;19971;-66
2021/12/01 14:08:52;;;;;;;;;;;8.70;99.90;;;;;;8304996;28;20307;-65
2021/12/01 14:12:59;;;;;;;;;;;8.60;99.90;;;;;;8294027;28;19913;-66
2021/12/01 14:17:01;;;;;;;;;;;8.60;99.90;;;;;;8295329;28;20007;-66
2021/12/01 14:21:12;;;;;;;;;;;8.50;99.90;;;;;;8318571;28;19914;-65
2021/12/01 14:25:13;;;;;;;;;;;8.40;99.90;;;;;;8306362;28;19943;-65
2021/12/01 14:29:15;;;;;;;;;;;8.30;99.90;;;;;;8305968;28;19913;-66
2021/12/01 14:33:17;;;;;;;;;;;8.30;99.90;;;;;;8291650;28;19929;-67
2021/12/01 14:37:18;;;;;;;;;;;8.30;99.90;;;;;;8276890;28;19914;-66
2021/12/01 14:41:18;;;;;;;;;;;8.30;99.90;;;;;;8290524;28;19929;-66
2021/12/01 14:45:24;;;;;;;;;;;8.30;99.90;;;;;;8295782;28;19924;-66
2021/12/01 14:49:34;;;;;;;;;;;8.30;99.90;;;;;;8291526;28;19923;-66
2021/12/01 14:53:36;;;;;;;;;;;8.30;99.90;;;;;;8294057;28;19922;-66
2021/12/01 14:57:47;;;;;;;;;;;8.30;99.90;;;;;;8294403;28;19913;-66
2021/12/01 15:02:07;;;;;;;;;;;8.40;99.90;;;;;;8298453;28;19913;-66
2021/12/01 15:06:08;;;;;;;;;;;8.40;99.90;;;;;;8287400;28;19922;-64
2021/12/01 15:10:10;;;;;;;;;;;8.40;99.90;;;;;;8306368;28;20291;-67
2021/12/01 15:14:11;;;;;;;;;;;8.30;99.90;;;;;;8297911;28;20461;-65
2021/12/01 15:18:18;;;;;;;;;;;8.30;99.90;;;;;;8297750;28;19921;-66
2021/12/01 15:22:19;;;;;;;;;;;8.20;99.90;;;;;;8289132;28;19920;-65
2021/12/01 15:26:22;;;;;;;;;;;8.20;99.90;;;;;;8296081;28;20335;-66
2021/12/01 15:30:22;;;;;;;;;;;8.20;99.90;;;;;;8277932;28;19914;-63
2021/12/01 15:34:24;;;;;;;;;;;8.10;99.90;;;;;;8297103;28;19913;-65
2021/12/01 15:38:24;;;;;;;;;;;8.10;99.90;;;;;;8278370;28;19989;-66
2021/12/01 15:42:25;;;;;;;;;;;8.00;99.90;;;;;;8268946;28;19918;-65
2021/12/01 15:46:25;;;;;;;;;;;8.00;99.90;;;;;;8295826;28;19913;-65
2021/12/01 15:50:26;;;;;;;;;;;8.00;99.90;;;;;;8292943;28;20020;-65
2021/12/01 15:54:27;;;;;;;;;;;7.90;99.90;;;;;;8295334;28;19948;-65
2021/12/01 15:58:27;;;;;;;;;;;7.80;99.90;;;;;;8299195;28;19920;-65
2021/12/01 16:02:28;;;;;;;;;;;7.80;99.90;;;;;;8310017;28;19994;-65
2021/12/01 16:06:29;;;;;;;;;;;7.70;99.90;;;;;;8298855;28;19926;-66
2021/12/01 16:10:30;;;;;;;;;;;7.70;99.90;;;;;;8304308;28;19976;-67
2021/12/01 16:14:31;;;;;;;;;;;7.70;99.90;;;;;;8300733;28;20003;-66
2021/12/01 16:18:32;;;;;;;;;;;7.60;99.90;;;;;;8312348;28;20459;-65
2021/12/01 16:22:32;;;;;;;;;;;7.60;99.90;;;;;;8295436;28;19986;-67
2021/12/01 16:26:33;;;;;;;;;;;7.60;99.90;;;;;;8296455;28;19917;-67
2021/12/01 16:30:33;;;;;;;;;;;7.60;99.90;;;;;;8279150;28;19917;-66
2021/12/01 16:34:34;;;;;;;;;;;7.60;99.90;;;;;;8297595;28;19917;-65
2021/12/01 16:38:36;;;;;;;;;;;7.60;99.90;;;;;;8305193;28;19928;-67
2021/12/01 16:42:36;;;;;;;;;;;7.50;99.90;;;;;;8326726;28;19916;-67
2021/12/01 16:46:37;;;;;;;;;;;7.40;99.90;;;;;;8322448;28;20493;-67
2021/12/01 16:50:38;;;;;;;;;;;7.40;99.90;;;;;;8324298;28;19917;-66
2021/12/01 16:54:39;;;;;;;;;;;7.30;99.90;;;;;;8290136;28;19929;-67
2021/12/01 16:58:39;;;;;;;;;;;7.30;99.90;;;;;;8296545;28;19920;-66
2021/12/01 17:02:43;;;;;;;;;;;7.40;99.90;;;;;;8311798;28;19913;-66
2021/12/01 17:06:51;;;;;;;;;;;7.30;99.90;;;;;;8322104;28;19921;-67
2021/12/01 17:10:54;;;;;;;;;;;7.20;99.90;;;;;;8295675;28;20009;-67
2021/12/01 17:14:55;;;;;;;;;;;7.10;99.90;;;;;;8301094;28;19923;-66
2021/12/01 17:18:55;;;;;;;;;;;7.10;99.90;;;;;;8325026;28;19917;-66
2021/12/01 17:22:57;;;;;;;;;;;7.10;99.90;;;;;;8304689;28;19917;-67
2021/12/01 17:26:58;;;;;;;;;;;7.20;99.90;;;;;;8302345;28;19928;-66
2021/12/01 17:31:06;;;;;;;;;;;7.20;99.90;;;;;;8307182;28;19921;-67
2021/12/01 17:35:07;;;;;;;;;;;7.20;99.90;;;;;;8271853;28;19928;-67
2021/12/01 17:39:09;;;;;;;;;;;7.10;99.90;;;;;;8274875;28;19917;-68
2021/12/01 17:43:10;;;;;;;;;;;7.10;99.90;;;;;;8279526;28;19918;-67
2021/12/01 17:47:11;;;;;;;;;;;7.10;99.90;;;;;;8259416;28;19928;-68
2021/12/01 17:51:12;;;;;;;;;;;7.00;99.90;;;;;;8286396;28;19917;-67
2021/12/01 17:55:14;;;;;;;;;;;7.10;99.90;;;;;;8279485;28;21343;-67
2021/12/01 17:59:14;;;;;;;;;;;7.00;99.90;;;;;;8282254;28;19921;-67
2021/12/01 18:03:15;;;;;;;;;;;7.00;99.90;;;;;;8252844;28;19961;-67
2021/12/01 18:07:16;;;;;;;;;;;6.90;99.90;;;;;;8268775;28;20367;-67
2021/12/01 18:11:17;;;;;;;;;;;6.90;99.90;;;;;;8305034;22;20381;-64
2021/12/01 18:15:17;;;;;;;;;;;6.90;99.90;;;;;;8320252;28;19921;-63
2021/12/01 18:19:18;;;;;;;;;;;6.90;99.90;;;;;;8324306;28;19912;-63
2021/12/01 18:23:21;;;;;;;;;;;6.90;99.90;;;;;;8335167;28;19917;-63
2021/12/01 18:27:21;;;;;;;;;;;7.00;99.90;;;;;;8325912;28;20036;-62
2021/12/01 18:31:22;;;;;;;;;;;6.90;99.90;;;;;;8321635;28;20354;-63
2021/12/01 18:35:22;;;;;;;;;;;7.00;99.90;;;;;;8322657;28;20611;-62
2021/12/01 18:39:25;;;;;;;;;;;7.00;99.90;;;;;;8322329;28;19917;-63
2021/12/01 18:43:26;;;;;;;;;;;7.10;99.90;;;;;;8318846;28;19917;-63
2021/12/01 18:47:28;;;;;;;;;;;7.00;99.90;;;;;;8319370;28;19964;-63
2021/12/01 18:51:28;;;;;;;;;;;6.80;99.90;;;;;;8322306;28;19924;-63
2021/12/01 18:55:29;;;;;;;;;;;6.70;99.90;;;;;;8320025;28;19913;-63
2021/12/01 18:59:29;;;;;;;;;;;6.60;99.90;;;;;;8322812;28;19916;-64
2021/12/01 19:03:31;;;;;;;;;;;6.50;99.90;;;;;;8321455;28;19913;-63
2021/12/01 19:07:32;;;;;;;;;;;6.40;99.90;;;;;;8321414;28;19925;-63
2021/12/01 19:11:33;;;;;;;;;;;6.40;99.90;;;;;;8320640;28;19944;-62
2021/12/01 19:15:33;;;;;;;;;;;6.40;99.90;;;;;;8294278;28;19924;-62
2021/12/01 19:19:37;;;;;;;;;;;6.40;99.90;;;;;;8294653;28;20526;-62
2021/12/01 19:23:39;;;;;;;;;;;6.40;99.90;;;;;;8302287;28;19924;-63
2021/12/01 19:27:41;;;;;;;;;;;6.30;99.90;;;;;;8303252;28;20008;-63
2021/12/01 19:31:41;;;;;;;;;;;6.30;99.90;;;;;;8305657;28;19929;-63
2021/12/01 19:35:42;;;;;;;;;;;6.30;99.90;;;;;;8291682;28;19932;-62
2021/12/01 19:39:42;;;;;;;;;;;6.30;99.90;;;;;;8319587;28;19921;-62
2021/12/01 19:43:43;;;;;;;;;;;6.30;99.90;;;;;;8319823;28;19917;-62
2021/12/01 19:47:44;;;;;;;;;;;6.30;99.90;;;;;;8322782;28;20335;-63
2021/12/01 19:51:45;;;;;;;;;;;6.30;99.90;;;;;;8322650;28;19909;-62
2021/12/01 19:55:48;;;;;;;;;;;6.30;99.90;;;;;;8320726;28;19917;-62
2021/12/01 19:59:49;;;;;;;;;;;6.40;99.90;;;;;;8314676;28;19917;-63
2021/12/01 20:03:50;;;;;;;;;;;6.50;99.90;;;;;;8310133;28;20291;-63
2021/12/01 20:07:52;;;;;;;;;;;6.50;99.90;;;;;;8301513;28;20589;-64
2021/12/01 20:11:53;;;;;;;;;;;6.40;99.90;;;;;;8300942;28;19924;-62
2021/12/01 20:15:58;;;;;;;;;;;6.50;99.90;;;;;;8316897;28;19914;-64
2021/12/01 20:19:59;;;;;;;;;;;6.50;99.90;;;;;;8328421;28;20315;-64
2021/12/01 20:24:02;;;;;;;;;;;6.50;99.90;;;;;;8314030;28;19921;-64
2021/12/01 20:28:03;;;;;;;;;;;6.50;99.90;;;;;;8321225;28;20004;-64
2021/12/01 20:32:04;;;;;;;;;;;6.50;99.90;;;;;;8322133;28;19917;-64
2021/12/01 20:36:06;;;;;;;;;;;6.50;99.90;;;;;;8322334;28;19966;-64
2021/12/01 20:40:07;;;;;;;;;;;6.40;99.90;;;;;;8313835;28;19917;-63
2021/12/01 20:44:12;;;;;;;;;;;6.40;99.90;;;;;;8308425;28;20304;-64
2021/12/01 20:52:30;;;;;;;;;;;6.30;99.90;;;;;;8306636;28;19924;-64
2021/12/01 20:53:03;;;;;;;;;;;6.30;99.90;;;;;;8321263;28;20514;-64
2021/12/01 21:01:27;;;;;;;;;;;6.20;99.90;;;;;;8328325;28;19913;-64
2021/12/01 21:05:28;;;;;;;;;;;6.10;99.90;;;;;;8326143;28;19921;-64
2021/12/01 21:09:35;;;;;;;;;;;6.10;99.90;;;;;;8328098;28;19975;-64
2021/12/01 21:13:37;;;;;;;;;;;6.10;99.90;;;;;;8326429;28;19921;-64
2021/12/01 21:17:38;;;;;;;;;;;6.20;99.90;;;;;;8327302;28;19956;-64
2021/12/01 21:21:42;;;;;;;;;;;6.30;99.90;;;;;;8328576;28;19946;-63
2021/12/01 21:25:55;;;;;;;;;;;6.30;99.90;;;;;;8330305;28;19913;-63
2021/12/01 21:30:00;;;;;;;;;;;6.30;99.90;;;;;;8330779;28;19990;-63
2021/12/01 21:34:00;;;;;;;;;;;6.40;99.90;;;;;;8330182;28;19948;-62
2021/12/01 21:38:01;;;;;;;;;;;6.30;99.90;;;;;;8330751;28;19920;-63
2021/12/01 21:42:02;;;;;;;;;;;6.20;99.90;;;;;;8330292;28;20384;-63
2021/12/01 21:46:02;;;;;;;;;;;6.20;99.90;;;;;;8329516;28;19913;-62
2021/12/01 21:50:05;;;;;;;;;;;6.20;99.90;;;;;;8329263;28;22256;-62
2021/12/01 21:54:05;;;;;;;;;;;6.20;99.90;;;;;;8329036;28;20376;-63
2021/12/01 21:58:07;;;;;;;;;;;6.20;99.90;;;;;;8330249;28;19916;-63
2021/12/01 22:02:08;;;;;;;;;;;6.20;99.90;;;;;;8329844;28;20051;-63
2021/12/01 22:06:09;;;;;;;;;;;6.10;99.90;;;;;;8328265;28;19913;-63
2021/12/01 22:10:11;;;;;;;;;;;6.20;99.90;;;;;;8329681;28;19917;-63
2021/12/01 22:14:12;;;;;;;;;;;6.20;99.90;;;;;;8329850;28;19917;-63
2021/12/01 22:18:13;;;;;;;;;;;6.30;99.90;;;;;;8329835;28;20279;-63
2021/12/01 22:22:18;;;;;;;;;;;6.30;99.90;;;;;;8328171;28;20360;-64
2021/12/01 22:26:24;;;;;;;;;;;6.30;99.90;;;;;;8327777;28;19928;-63
2021/12/01 22:30:26;;;;;;;;;;;6.30;99.90;;;;;;8328893;28;20299;-63
2021/12/01 22:34:27;;;;;;;;;;;6.40;99.90;;;;;;8329241;28;19909;-62
2021/12/01 22:38:28;;;;;;;;;;;6.30;99.90;;;;;;8329265;28;19913;-63
2021/12/01 22:42:28;;;;;;;;;;;6.40;99.90;;;;;;8328540;28;20409;-64
2021/12/01 22:46:31;;;;;;;;;;;6.30;99.90;;;;;;8327510;28;19935;-63
2021/12/01 22:50:32;;;;;;;;;;;6.30;99.90;;;;;;8328521;28;19913;-63
2021/12/01 22:54:32;;;;;;;;;;;6.30;99.90;;;;;;8328126;28;20437;-63
2021/12/01 22:58:34;;;;;;;;;;;6.20;99.90;;;;;;8327212;28;20291;-63
2021/12/01 23:02:34;;;;;;;;;;;6.20;99.90;;;;;;8327884;28;19909;-62
2021/12/01 23:06:35;;;;;;;;;;;6.10;99.90;;;;;;8328059;28;19913;-63
2021/12/01 23:10:36;;;;;;;;;;;6.10;99.90;;;;;;8327301;28;19970;-63
2021/12/01 23:14:36;;;;;;;;;;;6.10;99.90;;;;;;8326511;28;19917;-63
2021/12/01 23:18:37;;;;;;;;;;;6.10;99.90;;;;;;8327665;28;19909;-63
2021/12/01 23:27:30;;;;;;;;;;;6.00;99.90;;;;;;8327410;28;19909;-63
2021/12/01 23:31:21;;;;;;;;;;;5.80;99.90;;;;;;8327997;28;19916;-63
2021/12/01 23:35:21;;;;;;;;;;;5.70;99.90;;;;;;8327467;28;19913;-63
2021/12/01 23:39:22;;;;;;;;;;;5.60;99.90;;;;;;8324104;28;20276;-63
2021/12/01 23:43:22;;;;;;;;;;;5.60;99.90;;;;;;8325798;28;19909;-63
2021/12/01 23:51:57;;;;;;;;;;;5.50;99.90;;;;;;8307069;28;19944;-63
2021/12/01 23:55:58;;;;;;;;;;;5.50;99.90;;;;;;8326913;28;20399;-63
2021/12/01 23:59:58;;;;;;;;;;;5.60;99.90;;;;;;8326711;28;19909;-63
